Time;durP1;ratioP1;P1;durP2;ratioP2;P2;SDS_P1;SDS_P2;PMS_P1;PMS_P2;Temp;Humidity;BMP_temperature;BMP_pressure;BME280_temperature;BME280_humidity;BME280_pressure;Samples;Min_cycle;Max_cycle;Signal;HPM_P1;HPM_P2
2022/10/06 00:00:27;;;;;;;1999.90;999.90;;;15.50;99.90;;;;;;4995437;28;20026;-78
2022/10/06 00:02:53;;;;;;;1999.90;999.90;;;15.50;99.90;;;;;;4995577;28;20062;-78
2022/10/06 00:05:19;;;;;;;1999.90;999.90;;;15.50;99.90;;;;;;4995448;28;20038;-78
2022/10/06 00:07:45;;;;;;;1999.90;999.90;;;15.50;99.90;;;;;;4994961;28;20059;-78
2022/10/06 00:10:10;;;;;;;1999.90;999.90;;;15.50;99.90;;;;;;4995082;28;20551;-78
2022/10/06 00:12:40;;;;;;;1999.90;999.90;;;15.50;99.90;;;;;;4994734;28;20498;-72
2022/10/06 00:15:07;;;;;;;1999.90;999.90;;;15.50;99.90;;;;;;4994311;28;20030;-78
2022/10/06 00:17:33;;;;;;;1999.90;999.90;;;15.50;99.90;;;;;;4990085;28;20023;-78
2022/10/06 00:19:59;;;;;;;1999.90;999.90;;;15.50;99.90;;;;;;4993629;28;20026;-78
2022/10/06 00:22:25;;;;;;;1999.90;999.90;;;15.50;99.90;;;;;;4995088;28;20037;-78
2022/10/06 00:24:50;;;;;;;1999.90;999.90;;;15.50;99.90;;;;;;4994937;28;20030;-78
2022/10/06 00:27:16;;;;;;;1999.90;999.90;;;15.40;99.90;;;;;;4994717;28;20030;-78
2022/10/06 00:29:41;;;;;;;1999.90;999.90;;;15.40;99.90;;;;;;4994579;28;20026;-78
2022/10/06 00:32:08;;;;;;;1999.90;999.90;;;15.40;99.90;;;;;;4994805;28;20041;-73
2022/10/06 00:34:37;;;;;;;1999.90;999.90;;;15.30;99.90;;;;;;4993389;28;20057;-78
2022/10/06 00:37:03;;;;;;;1999.90;999.90;;;15.30;99.90;;;;;;4993900;28;20540;-78
2022/10/06 00:39:29;;;;;;;1999.90;999.90;;;15.20;99.90;;;;;;4994783;28;20022;-73
2022/10/06 00:41:54;;;;;;;1999.90;999.90;;;15.20;99.90;;;;;;4994360;28;20065;-78
2022/10/06 00:44:20;;;;;;;1999.90;999.90;;;15.20;99.90;;;;;;4994437;28;20031;-78
2022/10/06 00:46:49;;;;;;;1999.90;999.90;;;15.10;99.90;;;;;;4994441;28;20398;-78
2022/10/06 00:49:29;;;;;;;1999.90;999.90;;;15.10;99.90;;;;;;4993110;28;20088;-78
2022/10/06 00:52:01;;;;;;;1999.90;999.90;;;15.10;99.90;;;;;;4994345;28;20130;-73
2022/10/06 00:54:27;;;;;;;1999.90;999.90;;;15.00;99.90;;;;;;4993571;28;20038;-78
2022/10/06 00:56:53;;;;;;;1999.90;999.90;;;15.00;99.90;;;;;;4994419;28;20535;-78
2022/10/06 00:59:19;;;;;;;1999.90;999.90;;;15.00;99.90;;;;;;4994282;28;20022;-78
2022/10/06 01:01:50;;;;;;;1999.90;999.90;;;15.00;99.90;;;;;;4994306;28;20497;-78
2022/10/06 01:04:17;;;;;;;1999.90;999.90;;;15.00;99.90;;;;;;4994000;28;20041;-73
2022/10/06 01:06:49;;;;;;;1999.90;999.90;;;14.90;99.90;;;;;;4994029;28;20046;-78
2022/10/06 01:09:16;;;;;;;1999.90;999.90;;;14.90;99.90;;;;;;4994330;28;20037;-78
2022/10/06 01:11:42;;;;;;;1999.90;999.90;;;14.80;99.90;;;;;;4993418;28;20030;-78
2022/10/06 01:14:09;;;;;;;1999.90;999.90;;;14.80;99.90;;;;;;4992923;28;20034;-78
2022/10/06 01:16:38;;;;;;;1999.90;999.90;;;14.60;99.90;;;;;;4987742;28;20506;-78
2022/10/06 01:19:09;;;;;;;1999.90;999.90;;;14.60;99.90;;;;;;4990675;28;20111;-72
2022/10/06 01:21:40;;;;;;;1999.90;999.90;;;14.50;99.90;;;;;;4993288;28;20041;-78
2022/10/06 01:24:06;;;;;;;1999.90;999.90;;;14.50;99.90;;;;;;4993173;28;20054;-78
2022/10/06 01:26:38;;;;;;;1999.90;999.90;;;14.40;99.90;;;;;;4993797;28;20034;-78
2022/10/06 01:29:04;;;;;;;1999.90;999.90;;;14.40;99.90;;;;;;4993753;28;20030;-77
2022/10/06 01:31:30;;;;;;;1999.90;999.90;;;14.30;99.90;;;;;;4993678;28;20402;-73
2022/10/06 01:33:56;;;;;;;1999.90;999.90;;;14.30;99.90;;;;;;4992968;28;20058;-73
2022/10/06 01:36:21;;;;;;;1999.90;999.90;;;14.30;99.90;;;;;;4993012;28;20073;-72
2022/10/06 01:38:47;;;;;;;1999.90;999.90;;;14.20;99.90;;;;;;4989659;28;20034;-78
2022/10/06 01:41:13;;;;;;;1999.90;999.90;;;14.10;99.90;;;;;;4974186;28;20054;-78
2022/10/06 01:43:38;;;;;;;1999.90;999.90;;;14.10;99.90;;;;;;4974226;28;20037;-73
2022/10/06 01:46:04;;;;;;;1999.90;999.90;;;14.00;99.90;;;;;;4973916;28;20066;-73
2022/10/06 01:48:30;;;;;;;1999.90;999.90;;;14.00;99.90;;;;;;4973401;28;20031;-78
2022/10/06 01:50:55;;;;;;;1999.90;999.90;;;13.90;99.90;;;;;;4973947;28;20089;-78
2022/10/06 01:53:22;;;;;;;1999.90;999.90;;;13.80;99.90;;;;;;4979578;28;20101;-78
2022/10/06 01:55:47;;;;;;;1999.90;999.90;;;13.80;99.90;;;;;;4993300;28;20023;-78
2022/10/06 01:58:13;;;;;;;1999.90;999.90;;;13.80;99.90;;;;;;4993244;28;20038;-73
2022/10/06 02:00:39;;;;;;;1999.90;999.90;;;13.70;99.90;;;;;;4993106;28;20030;-78
2022/10/06 02:03:06;;;;;;;1999.90;999.90;;;13.70;99.90;;;;;;4993427;28;20474;-78
2022/10/06 02:05:32;;;;;;;1999.90;999.90;;;13.70;99.90;;;;;;4993290;28;20145;-79
2022/10/06 02:07:59;;;;;;;1999.90;999.90;;;13.60;99.90;;;;;;4993007;28;20077;-79
2022/10/06 02:10:25;;;;;;;1999.90;999.90;;;13.50;99.90;;;;;;4992800;28;20044;-73
2022/10/06 02:12:52;;;;;;;1999.90;999.90;;;13.50;99.90;;;;;;4992511;28;20545;-73
2022/10/06 02:15:19;;;;;;;1999.90;999.90;;;13.40;99.90;;;;;;4993031;28;20393;-78
2022/10/06 02:17:46;;;;;;;1999.90;999.90;;;13.30;99.90;;;;;;4989444;28;20553;-79
2022/10/06 02:20:11;;;;;;;1999.90;999.90;;;13.20;99.90;;;;;;4992481;28;20070;-78
2022/10/06 02:22:39;;;;;;;1999.90;999.90;;;13.20;99.90;;;;;;4992808;28;20101;-73
2022/10/06 02:25:05;;;;;;;1999.90;999.90;;;13.10;99.90;;;;;;4992969;28;20045;-72
2022/10/06 02:27:31;;;;;;;1999.90;999.90;;;13.10;99.90;;;;;;4992955;28;20034;-79
2022/10/06 02:29:57;;;;;;;1999.90;999.90;;;13.10;99.90;;;;;;4992725;28;20061;-79
2022/10/06 02:32:22;;;;;;;1999.90;999.90;;;13.00;99.90;;;;;;4992696;28;20034;-79
2022/10/06 02:34:48;;;;;;;1999.90;999.90;;;13.00;99.90;;;;;;4991276;28;20125;-80
2022/10/06 02:37:14;;;;;;;1999.90;999.90;;;12.90;99.90;;;;;;4991640;28;20061;-73
2022/10/06 02:39:40;;;;;;;1999.90;999.90;;;12.90;99.90;;;;;;4992592;28;20370;-79
2022/10/06 02:42:06;;;;;;;1999.90;999.90;;;12.90;99.90;;;;;;4992549;28;20026;-78
2022/10/06 02:44:32;;;;;;;1999.90;999.90;;;12.90;99.90;;;;;;4992620;28;20066;-79
2022/10/06 02:46:58;;;;;;;1999.90;999.90;;;12.90;99.90;;;;;;4991527;28;20062;-79
2022/10/06 02:49:24;;;;;;;1999.90;999.90;;;12.90;99.90;;;;;;4992559;28;20397;-73
2022/10/06 02:51:50;;;;;;;1999.90;999.90;;;12.90;99.90;;;;;;4992504;28;20037;-73
2022/10/06 02:54:16;;;;;;;1999.90;999.90;;;12.90;99.90;;;;;;4992681;28;20041;-79
2022/10/06 02:56:41;;;;;;;1999.90;999.90;;;12.90;99.90;;;;;;4992783;28;20018;-79
2022/10/06 02:59:07;;;;;;;1999.90;999.90;;;12.80;99.90;;;;;;4992900;28;20089;-79
2022/10/06 03:01:33;;;;;;;1999.90;999.90;;;12.70;99.90;;;;;;4992412;28;20030;-73
2022/10/06 03:03:59;;;;;;;1999.90;999.90;;;12.70;99.90;;;;;;4992256;28;20030;-73
2022/10/06 03:06:26;;;;;;;1999.90;999.90;;;12.60;99.90;;;;;;4989048;28;20051;-79
2022/10/06 03:08:55;;;;;;;1999.90;999.90;;;12.60;99.90;;;;;;4992512;28;20023;-79
2022/10/06 03:11:23;;;;;;;1999.90;999.90;;;12.60;99.90;;;;;;4992954;28;20029;-79
2022/10/06 03:13:50;;;;;;;1999.90;999.90;;;12.50;99.90;;;;;;4995832;28;20026;-79
2022/10/06 03:16:18;;;;;;;1999.90;999.90;;;12.40;99.90;;;;;;4996017;28;20022;-73
2022/10/06 03:18:45;;;;;;;1999.90;999.90;;;12.40;99.90;;;;;;4992764;28;20058;-79
2022/10/06 03:21:18;;;;;;;1999.90;999.90;;;12.40;99.90;;;;;;4995741;28;20022;-79
2022/10/06 03:23:47;;;;;;;1999.90;999.90;;;12.40;99.90;;;;;;4996089;28;20394;-79
2022/10/06 03:26:15;;;;;;;1999.90;999.90;;;12.30;99.90;;;;;;4995221;28;20034;-78
2022/10/06 03:28:41;;;;;;;1999.90;999.90;;;12.20;99.90;;;;;;4995763;28;20034;-73
2022/10/06 03:31:07;;;;;;;1999.90;999.90;;;12.20;99.90;;;;;;4996036;28;20053;-79
2022/10/06 03:33:33;;;;;;;1999.90;999.90;;;12.20;99.90;;;;;;4995395;28;20042;-79
2022/10/06 03:36:19;;;;;;;1999.90;999.90;;;12.20;99.90;;;;;;4995764;28;20033;-79
2022/10/06 03:38:44;;;;;;;1999.90;999.90;;;12.10;99.90;;;;;;4991766;28;20034;-79
2022/10/06 03:41:15;;;;;;;1999.90;999.90;;;12.10;99.90;;;;;;4976448;28;20019;-78
2022/10/06 03:43:46;;;;;;;1999.90;999.90;;;12.10;99.90;;;;;;4976229;28;20485;-73
2022/10/06 03:46:14;;;;;;;1999.90;999.90;;;12.00;99.90;;;;;;4977783;28;20081;-79
2022/10/06 03:48:40;;;;;;;1999.90;999.90;;;11.90;99.90;;;;;;4995456;28;20114;-79
2022/10/06 03:51:26;;;;;;;1999.90;999.90;;;11.90;99.90;;;;;;4995599;28;20085;-79
2022/10/06 03:53:52;;;;;;;1999.90;999.90;;;11.80;99.90;;;;;;4995338;28;20042;-79
2022/10/06 03:56:25;;;;;;;1999.90;999.90;;;11.80;99.90;;;;;;4995346;28;20028;-73
2022/10/06 03:58:59;;;;;;;1999.90;999.90;;;11.80;99.90;;;;;;4995327;28;20098;-79
2022/10/06 04:01:28;;;;;;;1999.90;999.90;;;11.80;99.90;;;;;;4995248;28;20038;-79
2022/10/06 04:03:56;;;;;;;1999.90;999.90;;;11.70;99.90;;;;;;4993422;28;20480;-79
2022/10/06 04:06:22;;;;;;;1999.90;999.90;;;11.70;99.90;;;;;;4994581;28;20026;-73
2022/10/06 04:08:49;;;;;;;1999.90;999.90;;;11.70;99.90;;;;;;4995143;28;20027;-73
2022/10/06 04:11:17;;;;;;;1999.90;999.90;;;11.60;99.90;;;;;;4995244;28;20540;-79
2022/10/06 04:13:44;;;;;;;1999.90;999.90;;;11.60;99.90;;;;;;4994676;28;20109;-79
2022/10/06 04:16:24;;;;;;;1999.90;999.90;;;11.60;99.90;;;;;;4994433;28;20121;-73
2022/10/06 04:18:55;;;;;;;1999.90;999.90;;;11.60;99.90;;;;;;4991515;28;20050;-79
2022/10/06 04:21:21;;;;;;;1999.90;999.90;;;11.60;99.90;;;;;;4994390;28;20053;-79
2022/10/06 04:23:47;;;;;;;1999.90;999.90;;;11.60;99.90;;;;;;4994599;28;20027;-79
2022/10/06 04:26:15;;;;;;;1999.90;999.90;;;11.60;99.90;;;;;;4993549;28;20069;-79
2022/10/06 04:28:45;;;;;;;1999.90;999.90;;;11.50;99.90;;;;;;4994647;28;20022;-79
2022/10/06 04:31:17;;;;;;;1999.90;999.90;;;11.50;99.90;;;;;;4994966;28;20026;-79
2022/10/06 04:33:45;;;;;;;1999.90;999.90;;;11.40;99.90;;;;;;4994536;28;20037;-80
2022/10/06 04:36:14;;;;;;;1999.90;999.90;;;11.50;99.90;;;;;;4994808;28;20118;-73
2022/10/06 04:38:40;;;;;;;1999.90;999.90;;;11.50;99.90;;;;;;4991271;28;20034;-79
2022/10/06 04:41:09;;;;;;;1999.90;999.90;;;11.40;99.90;;;;;;4975509;28;20038;-75
2022/10/06 04:43:34;;;;;;;1999.90;999.90;;;11.40;99.90;;;;;;4975134;28;20031;-79
2022/10/06 04:46:01;;;;;;;1999.90;999.90;;;11.30;99.90;;;;;;4980022;28;20030;-79
2022/10/06 04:48:28;;;;;;;1999.90;999.90;;;11.30;99.90;;;;;;4994067;28;20022;-74
2022/10/06 04:51:11;;;;;;;1999.90;999.90;;;11.20;99.90;;;;;;4994742;28;20509;-79
2022/10/06 04:53:36;;;;;;;1999.90;999.90;;;11.20;99.90;;;;;;4994355;28;20034;-78
2022/10/06 04:56:06;;;;;;;1999.90;999.90;;;11.10;99.90;;;;;;4994018;28;20033;-79
2022/10/06 04:58:34;;;;;;;1999.90;999.90;;;11.10;99.90;;;;;;4993947;28;20498;-73
2022/10/06 05:01:00;;;;;;;1999.90;999.90;;;11.10;99.90;;;;;;4993973;28;20018;-78
2022/10/06 05:03:30;;;;;;;1999.90;999.90;;;11.10;99.90;;;;;;4993669;28;20173;-78
2022/10/06 05:06:17;;;;;;;1999.90;999.90;;;11.00;99.90;;;;;;4991988;28;20052;-79
2022/10/06 05:08:50;;;;;;;1999.90;999.90;;;10.90;99.90;;;;;;4991248;28;20058;-79
2022/10/06 05:11:17;;;;;;;1999.90;999.90;;;10.90;99.90;;;;;;4993513;28;20049;-73
2022/10/06 05:13:43;;;;;;;1999.90;999.90;;;10.90;99.90;;;;;;4993947;28;20042;-79
2022/10/06 05:16:13;;;;;;;1999.90;999.90;;;10.90;99.90;;;;;;4983997;28;20160;-80
2022/10/06 05:18:38;;;;;;;1999.90;999.90;;;10.90;99.90;;;;;;4989667;28;20026;-79
2022/10/06 05:21:07;;;;;;;1999.90;999.90;;;10.90;99.90;;;;;;4989975;28;20421;-79
2022/10/06 05:23:36;;;;;;;1999.90;999.90;;;10.90;99.90;;;;;;4993869;28;20033;-78
2022/10/06 05:26:02;;;;;;;1999.90;999.90;;;10.90;99.90;;;;;;4993466;28;20018;-73
2022/10/06 05:28:29;;;;;;;1999.90;999.90;;;10.90;99.90;;;;;;4993658;28;20526;-79
2022/10/06 05:30:58;;;;;;;1999.90;999.90;;;10.80;99.90;;;;;;4993809;28;20029;-79
2022/10/06 05:33:26;;;;;;;1999.90;999.90;;;10.80;99.90;;;;;;4993713;28;20030;-74
2022/10/06 05:35:56;;;;;;;1999.90;999.90;;;10.80;99.90;;;;;;4992528;28;20022;-79
2022/10/06 05:38:23;;;;;;;1999.90;999.90;;;10.80;99.90;;;;;;4993400;28;20025;-80
2022/10/06 05:40:49;;;;;;;1999.90;999.90;;;10.70;99.90;;;;;;4992797;28;20080;-73
2022/10/06 05:43:16;;;;;;;1999.90;999.90;;;10.70;99.90;;;;;;4993772;28;20481;-79
2022/10/06 05:45:55;;;;;;;1999.90;999.90;;;10.70;99.90;;;;;;4992094;28;20030;-78
2022/10/06 05:48:21;;;;;;;1999.90;999.90;;;10.70;99.90;;;;;;4993222;28;20049;-77
2022/10/06 05:50:47;;;;;;;1999.90;999.90;;;10.70;99.90;;;;;;4993392;28;20034;-73
2022/10/06 05:53:13;;;;;;;1999.90;999.90;;;10.70;99.90;;;;;;4993712;28;20053;-73
2022/10/06 05:55:39;;;;;;;1999.90;999.90;;;10.70;99.90;;;;;;4993144;28;20477;-79
2022/10/06 05:58:04;;;;;;;1999.90;999.90;;;10.60;99.90;;;;;;4993160;28;20489;-79
2022/10/06 06:00:30;;;;;;;1999.90;999.90;;;10.60;99.90;;;;;;4993041;28;20026;-79
2022/10/06 06:02:56;;;;;;;1999.90;999.90;;;10.60;99.90;;;;;;4993211;28;20030;-79
2022/10/06 06:05:21;;;;;;;1999.90;999.90;;;10.60;99.90;;;;;;4992217;28;20057;-73
2022/10/06 06:07:47;;;;;;;1999.90;999.90;;;10.50;99.90;;;;;;4992972;28;20127;-79
2022/10/06 06:10:12;;;;;;;1999.90;999.90;;;10.50;99.90;;;;;;4992807;28;20034;-79
2022/10/06 06:12:38;;;;;;;1999.90;999.90;;;10.60;99.90;;;;;;4992653;28;20035;-79
2022/10/06 06:17:48;;;;;;;1999.90;999.90;;;10.50;99.90;;;;;;4991337;28;20094;-73
2022/10/06 06:20:14;;;;;;;1999.90;999.90;;;10.60;99.90;;;;;;4992327;28;20034;-73
2022/10/06 06:22:40;;;;;;;1999.90;999.90;;;10.60;99.90;;;;;;4992902;28;20049;-79
2022/10/06 06:25:06;;;;;;;1999.90;999.90;;;10.60;99.90;;;;;;4991947;28;20079;-73
2022/10/06 06:27:31;;;;;;;1999.90;999.90;;;10.50;99.90;;;;;;4993184;28;20104;-79
2022/10/06 06:29:57;;;;;;;1999.90;999.90;;;10.50;99.90;;;;;;4992287;28;20494;-73
2022/10/06 06:32:23;;;;;;;1999.90;999.90;;;10.50;99.90;;;;;;4992622;28;20037;-73
2022/10/06 06:34:51;;;;;;;1999.90;999.90;;;10.50;99.90;;;;;;4992355;28;20108;-78
2022/10/06 06:37:17;;;;;;;1999.90;999.90;;;10.50;99.90;;;;;;4992904;28;20489;-79
2022/10/06 06:39:42;;;;;;;1999.90;999.90;;;10.50;99.90;;;;;;4982016;28;20110;-79
2022/10/06 06:42:08;;;;;;;1999.90;999.90;;;10.50;99.90;;;;;;4982559;28;20512;-74
2022/10/06 06:44:34;;;;;;;1999.90;999.90;;;10.50;99.90;;;;;;4990855;28;20066;-73
2022/10/06 06:47:00;;;;;;;1999.90;999.90;;;10.50;99.90;;;;;;4996034;28;20513;-78
2022/10/06 06:49:25;;;;;;;1999.90;999.90;;;10.50;99.90;;;;;;4996430;28;20128;-78
2022/10/06 06:51:53;;;;;;;1999.90;999.90;;;10.40;99.90;;;;;;4996451;28;20031;-78
2022/10/06 06:54:19;;;;;;;1999.90;999.90;;;10.50;99.90;;;;;;4996379;28;20034;-79
2022/10/06 06:56:46;;;;;;;1999.90;999.90;;;10.50;99.90;;;;;;4984846;28;20026;-79
2022/10/06 06:59:12;;;;;;;1999.90;999.90;;;10.60;99.90;;;;;;4977139;28;20031;-78
2022/10/06 07:01:43;;;;;;;1999.90;999.90;;;10.60;99.90;;;;;;4977075;28;20035;-79
2022/10/06 07:04:09;;;;;;;1999.90;999.90;;;10.70;99.90;;;;;;4976909;28;20042;-78
2022/10/06 07:06:38;;;;;;;1999.90;999.90;;;10.70;99.90;;;;;;4993551;28;20040;-78
2022/10/06 07:09:04;;;;;;;1999.90;999.90;;;10.80;99.90;;;;;;4996575;28;20405;-74
2022/10/06 07:11:35;;;;;;;1999.90;999.90;;;10.90;99.90;;;;;;4996194;28;20024;-74
2022/10/06 07:14:03;;;;;;;1999.90;999.90;;;10.90;99.90;;;;;;4996184;28;20077;-79
2022/10/06 07:25:06;;;;;;;1999.90;999.90;;;11.30;99.90;;;;;;4995797;28;20115;-73
2022/10/06 07:27:35;;;;;;;1999.90;999.90;;;11.40;99.90;;;;;;4996316;28;20030;-78
2022/10/06 07:30:03;;;;;;;1999.90;999.90;;;12.20;99.90;;;;;;4995836;28;20038;-78
2022/10/06 07:32:30;;;;;;;1999.90;999.90;;;12.30;99.90;;;;;;4995884;28;20490;-79
2022/10/06 07:34:57;;;;;;;1999.90;999.90;;;12.20;99.90;;;;;;4995695;28;20031;-74
2022/10/06 07:37:23;;;;;;;1999.90;999.90;;;12.20;99.90;;;;;;4995521;28;20030;-73
2022/10/06 07:39:49;;;;;;;1999.90;999.90;;;12.30;99.90;;;;;;4994745;28;20037;-78
2022/10/06 07:42:16;;;;;;;1999.90;999.90;;;12.30;99.90;;;;;;4994979;28;20026;-78
2022/10/06 07:44:43;;;;;;;1999.90;999.90;;;12.40;99.90;;;;;;4996019;28;20481;-78
2022/10/06 07:47:09;;;;;;;1999.90;999.90;;;12.50;99.90;;;;;;4996092;28;20102;-73
2022/10/06 07:49:34;;;;;;;1999.90;999.90;;;12.50;99.90;;;;;;4995264;28;20546;-73
2022/10/06 07:52:01;;;;;;;1999.90;999.90;;;12.50;99.90;;;;;;4995454;28;20034;-79
2022/10/06 07:54:27;;;;;;;1999.90;999.90;;;12.60;99.90;;;;;;4995342;28;20482;-79
2022/10/06 07:56:54;;;;;;;1999.90;999.90;;;12.60;99.90;;;;;;4982620;28;20031;-78
2022/10/06 07:59:19;;;;;;;1999.90;999.90;;;12.70;99.90;;;;;;4985854;28;20022;-78
2022/10/06 08:01:45;;;;;;;1999.90;999.90;;;12.80;99.90;;;;;;4995444;28;20057;-73
2022/10/06 08:04:14;;;;;;;1999.90;999.90;;;12.90;99.90;;;;;;4995190;28;20022;-78
2022/10/06 08:06:40;;;;;;;1999.90;999.90;;;13.50;99.90;;;;;;4995139;28;20042;-79
2022/10/06 08:09:06;;;;;;;1999.90;999.90;;;14.90;99.90;;;;;;4995453;28;20022;-79
2022/10/06 08:11:32;;;;;;;1999.90;999.90;;;15.90;99.90;;;;;;4995149;28;20037;-74
2022/10/06 08:13:58;;;;;;;1999.90;999.90;;;16.90;99.90;;;;;;4994728;28;20459;-74
2022/10/06 08:16:28;;;;;;;1999.90;999.90;;;17.50;99.90;;;;;;4995143;28;20101;-79
2022/10/06 08:18:56;;;;;;;1999.90;999.90;;;17.10;99.90;;;;;;4992125;28;20087;-79
2022/10/06 08:21:24;;;;;;;1999.90;999.90;;;17.70;99.90;;;;;;4994242;28;20038;-79
2022/10/06 08:23:51;;;;;;;1999.90;999.90;;;18.40;99.90;;;;;;4994789;28;20382;-79
2022/10/06 08:26:19;;;;;;;1999.90;999.90;;;20.00;99.90;;;;;;4994743;28;20067;-74
2022/10/06 08:28:47;;;;;;;1999.90;999.90;;;20.90;99.90;;;;;;4994607;28;20038;-74
2022/10/06 08:31:14;;;;;;;1999.90;999.90;;;19.80;99.90;;;;;;4994808;28;20037;-79
2022/10/06 08:33:41;;;;;;;1999.90;999.90;;;18.60;99.90;;;;;;4994351;28;20474;-79
2022/10/06 08:36:18;;;;;;;1999.90;999.90;;;18.00;99.90;;;;;;4994628;28;20026;-79
2022/10/06 08:38:50;;;;;;;1999.90;999.90;;;17.90;99.90;;;;;;4993965;28;20022;-79
2022/10/06 08:41:31;;;;;;;1999.90;999.90;;;17.90;99.90;;;;;;4994692;28;20026;-73
2022/10/06 08:44:05;;;;;;;1999.90;999.90;;;18.10;99.90;;;;;;4994506;28;20478;-79
2022/10/06 08:46:38;;;;;;;1999.90;999.90;;;18.30;99.90;;;;;;4994509;28;20018;-80
2022/10/06 08:49:04;;;;;;;;;;;18.20;99.90;;;;;;4994843;28;20112;-79
2022/10/06 08:52:07;;;;;;;1999.90;999.90;;;18.10;99.90;;;;;;4994733;28;19906;-79
2022/10/06 08:54:48;;;;;;;1999.90;999.90;;;18.70;99.90;;;;;;4994091;28;20030;-74
2022/10/06 08:57:30;;;;;;;1999.90;999.90;;;19.10;99.90;;;;;;4979384;28;20035;-74
2022/10/06 08:59:58;;;;;;;1999.90;999.90;;;19.10;99.90;;;;;;4994047;28;20018;-74
2022/10/06 09:02:28;;;;;;;1999.90;999.90;;;19.30;99.90;;;;;;4994155;28;20022;-79
2022/10/06 09:04:58;;;;;;;1999.90;999.90;;;19.80;99.90;;;;;;4994355;28;20057;-79
2022/10/06 09:07:38;;;;;;;1999.90;999.90;;;20.80;99.90;;;;;;4994184;28;20054;-74
2022/10/06 09:10:32;;;;;;;1999.90;999.90;;;21.60;99.90;;;;;;4993018;28;20022;-79
2022/10/06 09:13:19;;;;;;;1999.90;999.90;;;21.50;99.90;;;;;;4994158;28;20044;-74
2022/10/06 09:15:54;;;;;;;1999.90;999.90;;;21.00;99.90;;;;;;4994017;28;20022;-79
2022/10/06 09:18:26;;;;;;;1999.90;999.90;;;20.80;99.90;;;;;;4993137;28;20410;-74
2022/10/06 09:20:56;;;;;;;1999.90;999.90;;;19.90;99.90;;;;;;4993779;28;20114;-73
2022/10/06 09:26:10;;;;;;;1999.90;999.90;;;19.30;99.90;;;;;;4993960;28;20034;-79
2022/10/06 09:28:36;;;;;;;1999.90;999.90;;;18.90;99.90;;;;;;4993357;28;20069;-78
2022/10/06 09:31:20;;;;;;;1999.90;999.90;;;18.50;99.90;;;;;;5069841;28;20367;-73
2022/10/06 09:33:47;;;;;;;1999.90;999.90;;;18.60;99.90;;;;;;5056217;28;20079;-74
2022/10/06 09:36:13;;;;;;;1999.90;999.90;;;18.50;99.90;;;;;;5049510;28;20033;-78
2022/10/06 09:38:54;;;;;;;1999.90;999.90;;;18.20;99.90;;;;;;5061319;28;20017;-78
2022/10/06 09:41:36;;;;;;;1999.90;999.90;;;18.20;99.90;;;;;;5068177;28;20435;-78
2022/10/06 09:44:20;;;;;;;1999.90;999.90;;;18.30;99.90;;;;;;5068565;28;20037;-78
2022/10/06 09:46:46;;;;;;;1999.90;999.90;;;18.20;99.90;;;;;;5069294;28;20040;-78
2022/10/06 09:49:17;;;;;;;1999.90;999.90;;;18.40;99.90;;;;;;5069023;28;20033;-78
2022/10/06 09:52:14;;;;;;;1999.90;999.90;;;18.30;99.90;;;;;;5069061;28;20025;-78
2022/10/06 09:54:42;;;;;;;1999.90;999.90;;;18.20;99.90;;;;;;5069196;28;20404;-78
2022/10/06 09:57:14;;;;;;;1999.90;999.90;;;18.20;99.90;;;;;;5058938;28;20025;-78
2022/10/06 09:59:44;;;;;;;1999.90;999.90;;;18.10;99.90;;;;;;5069252;28;20029;-78
2022/10/06 10:02:35;;;;;;;1999.90;999.90;;;18.00;99.90;;;;;;5068826;28;20123;-78
2022/10/06 10:05:05;;;;;;;1999.90;999.90;;;18.00;99.90;;;;;;5068706;28;20096;-78
2022/10/06 10:07:34;;;;;;;1999.90;999.90;;;18.20;99.90;;;;;;5068771;28;20407;-78
2022/10/06 10:10:16;;;;;;;1999.90;999.90;;;18.20;99.90;;;;;;5068617;28;20082;-79
2022/10/06 10:12:52;;;;;;;1999.90;999.90;;;18.10;99.90;;;;;;5068473;28;20100;-78
2022/10/06 10:15:18;;;;;;;1999.90;999.90;;;18.10;99.90;;;;;;5068754;28;20016;-78
2022/10/06 10:17:47;;;;;;;1999.90;999.90;;;18.10;99.90;;;;;;5066932;28;20107;-78
2022/10/06 10:20:49;;;;;;;1999.90;999.90;;;18.30;99.90;;;;;;5068009;28;20043;-77
2022/10/06 10:23:22;;;;;;;1999.90;999.90;;;18.30;99.90;;;;;;5068591;28;20395;-78
2022/10/06 10:25:54;;;;;;;1999.90;999.90;;;18.30;99.90;;;;;;5068138;28;20484;-74
2022/10/06 10:28:45;;;;;;;1999.90;999.90;;;18.50;99.90;;;;;;5068222;28;20484;-78
2022/10/06 10:31:48;;;;;;;1999.90;999.90;;;18.70;99.90;;;;;;5068532;28;20102;-78
2022/10/06 10:34:27;;;;;;;1999.90;999.90;;;18.70;99.90;;;;;;5067943;28;20082;-79
2022/10/06 10:37:22;;;;;;;1999.90;999.90;;;18.50;99.90;;;;;;5067084;28;20025;-74
2022/10/06 10:40:14;;;;;;;1999.90;999.90;;;18.60;99.90;;;;;;5068023;28;20460;-73
2022/10/06 10:42:50;;;;;;;1999.90;999.90;;;18.60;99.90;;;;;;5051121;28;20037;-79
2022/10/06 10:45:35;;;;;;;1999.90;999.90;;;18.50;99.90;;;;;;5052839;28;20067;-78
2022/10/06 10:48:23;;;;;;;1999.90;999.90;;;18.50;99.90;;;;;;5054801;28;20103;-79
2022/10/06 10:50:58;;;;;;;1999.90;999.90;;;18.60;99.90;;;;;;5054581;28;20395;-73
2022/10/06 10:53:33;;;;;;;1999.90;999.90;;;19.00;99.90;;;;;;5054979;28;20017;-74
2022/10/06 10:56:00;;;;;;;1999.90;999.90;;;19.00;99.90;;;;;;5054107;28;20017;-75
2022/10/06 10:58:35;;;;;;;1999.90;999.90;;;18.80;99.90;;;;;;5065474;28;20032;-78
2022/10/06 11:01:11;;;;;;;1999.90;999.90;;;18.80;99.90;;;;;;5054715;28;20071;-79
2022/10/06 11:03:37;;;;;;;1999.90;999.90;;;18.90;99.90;;;;;;5054490;28;20484;-73
2022/10/06 11:06:05;;;;;;;1999.90;999.90;;;19.00;99.90;;;;;;5054336;28;20028;-79
2022/10/06 11:08:55;;;;;;;1999.90;999.90;;;19.20;99.90;;;;;;5054361;28;20033;-79
2022/10/06 11:11:26;;;;;;;1999.90;999.90;;;19.20;99.90;;;;;;5054710;28;20365;-79
2022/10/06 11:13:56;;;;;;;1999.90;999.90;;;19.40;99.90;;;;;;5054135;28;20087;-79
2022/10/06 11:16:31;;;;;;;1999.90;999.90;;;19.40;99.90;;;;;;5054350;28;20053;-74
2022/10/06 11:19:20;;;;;;;1999.90;999.90;;;19.30;99.90;;;;;;5052883;28;20021;-73
2022/10/06 11:22:01;;;;;;;1999.90;999.90;;;19.40;99.90;;;;;;5053911;28;20021;-80
2022/10/06 11:24:41;;;;;;;1999.90;999.90;;;19.50;99.90;;;;;;5053964;28;20396;-79
2022/10/06 11:27:26;;;;;;;1999.90;999.90;;;19.50;99.90;;;;;;5052915;28;20028;-79
2022/10/06 11:30:14;;;;;;;1999.90;999.90;;;19.80;99.90;;;;;;5053637;28;20411;-74
2022/10/06 11:33:16;;;;;;;1999.90;999.90;;;20.00;99.90;;;;;;5053692;28;20476;-79
2022/10/06 11:35:43;;;;;;;1999.90;999.90;;;19.90;99.90;;;;;;5053273;28;20090;-79
2022/10/06 11:38:28;;;;;;;1999.90;999.90;;;19.90;99.90;;;;;;5052632;28;20081;-79
2022/10/06 11:41:10;;;;;;;1999.90;999.90;;;19.80;99.90;;;;;;5033991;28;20071;-79
2022/10/06 11:43:56;;;;;;;1999.90;999.90;;;20.00;99.90;;;;;;5034042;28;20029;-74
2022/10/06 11:46:39;;;;;;;1999.90;999.90;;;20.00;99.90;;;;;;5032981;28;20124;-79
2022/10/06 11:49:31;;;;;;;1999.90;999.90;;;19.90;98.70;;;;;;5033292;28;20390;-79
2022/10/06 11:52:16;;;;;;;1999.90;999.90;;;20.00;98.90;;;;;;5033592;28;20025;-80
2022/10/06 11:54:42;;;;;;;1999.90;999.90;;;20.20;99.00;;;;;;5033098;28;20395;-74
2022/10/06 11:57:22;;;;;;;1999.90;999.90;;;20.50;99.00;;;;;;5034579;28;20366;-80
2022/10/06 11:59:50;;;;;;;1999.90;999.90;;;20.40;99.50;;;;;;5053491;28;20032;-79
2022/10/06 12:02:33;;;;;;;1999.90;999.90;;;20.40;99.00;;;;;;5053164;28;20024;-79
2022/10/06 12:05:11;;;;;;;1999.90;999.90;;;20.60;99.90;;;;;;5053244;28;20035;-79
2022/10/06 12:07:52;;;;;;;1999.90;999.90;;;20.70;99.50;;;;;;5053624;28;20823;-74
2022/10/06 12:10:26;;;;;;;1999.90;999.90;;;21.00;98.90;;;;;;5053080;28;20025;-74
2022/10/06 12:13:13;;;;;;;1999.90;999.90;;;21.10;98.40;;;;;;5051880;28;20025;-80
2022/10/06 12:15:55;;;;;;;1999.90;999.90;;;21.00;97.90;;;;;;5049437;28;20126;-80
2022/10/06 12:18:47;;;;;;;1999.90;999.90;;;21.00;98.50;;;;;;5052370;28;20025;-80
2022/10/06 12:21:23;;;;;;;1999.90;999.90;;;21.10;97.90;;;;;;5052879;28;20365;-80
2022/10/06 12:23:54;;;;;;;1999.90;999.90;;;21.00;97.50;;;;;;5052832;28;20444;-74
2022/10/06 12:26:33;;;;;;;1999.90;999.90;;;21.20;98.30;;;;;;5052967;28;20120;-80
2022/10/06 12:29:33;;;;;;;1999.90;999.90;;;21.30;98.50;;;;;;5052540;28;20051;-79